Terminal Aerodrome Forecast
Issued by NWS

Home | Current Version | Previous Version | Text Only | Print | Product List | Glossary On
Versions: 1 2 3 4 5 6 7 8 9 10 11 12 13 14 15 16 17 18 19 20 21
957
FTUS41 KCAR 221734
TAFFVE
TAF
KFVE 221734Z 2218/2318 23011G20KT P6SM BKN080
     FM230000 23007KT P6SM VCSH OVC090
     FM230600 26004KT P6SM VCSH OVC027
     FM230900 VRB03KT 5SM -SHRA BR OVC009
     FM231200 02006KT 3SM -SHRA OVC007
     FM231600 02008KT P6SM VCSH BKN030=

USA.gov is the U.S. government's official web portal to all federal, state and local government web resources and services.